sensor_id;sensor_type;location;lat;lon;timestamp;P1;durP1;ratioP1;P2;durP2;ratioP2
67544;SDS011;54380;47.770;11.150;2022-08-20T00:00:24;7.78;;;1.80;;
67544;SDS011;54380;47.770;11.150;2022-08-20T00:02:54;8.13;;;1.55;;
67544;SDS011;54380;47.770;11.150;2022-08-20T00:05:26;9.02;;;2.30;;
67544;SDS011;54380;47.770;11.150;2022-08-20T00:07:54;10.18;;;2.25;;
67544;SDS011;54380;47.770;11.150;2022-08-20T00:10:21;9.02;;;1.80;;
67544;SDS011;54380;47.770;11.150;2022-08-20T00:12:48;8.50;;;2.00;;
67544;SDS011;54380;47.770;11.150;2022-08-20T00:15:18;7.90;;;1.60;;
67544;SDS011;54380;47.770;11.150;2022-08-20T00:17:48;9.25;;;2.20;;
67544;SDS011;54380;47.770;11.150;2022-08-20T00:20:18;8.00;;;1.50;;
67544;SDS011;54380;47.770;11.150;2022-08-20T00:22:46;9.77;;;2.30;;
67544;SDS011;54380;47.770;11.150;2022-08-20T00:25:13;10.48;;;2.45;;
67544;SDS011;54380;47.770;11.150;2022-08-20T00:27:45;8.27;;;1.88;;
67544;SDS011;54380;47.770;11.150;2022-08-20T00:30:13;10.38;;;2.88;;
67544;SDS011;54380;47.770;11.150;2022-08-20T00:32:41;9.80;;;2.05;;
67544;SDS011;54380;47.770;11.150;2022-08-20T00:37:39;10.77;;;2.42;;
67544;SDS011;54380;47.770;11.150;2022-08-20T00:40:07;10.00;;;2.85;;
67544;SDS011;54380;47.770;11.150;2022-08-20T00:45:16;9.77;;;2.50;;
67544;SDS011;54380;47.770;11.150;2022-08-20T00:47:44;12.27;;;3.63;;
67544;SDS011;54380;47.770;11.150;2022-08-20T00:50:18;10.90;;;2.70;;
67544;SDS011;54380;47.770;11.150;2022-08-20T00:52:50;11.52;;;2.70;;
67544;SDS011;54380;47.770;11.150;2022-08-20T00:55:19;9.45;;;2.42;;
67544;SDS011;54380;47.770;11.150;2022-08-20T00:57:49;12.73;;;4.00;;
67544;SDS011;54380;47.770;11.150;2022-08-20T01:00:28;12.88;;;3.95;;
67544;SDS011;54380;47.770;11.150;2022-08-20T01:02:58;11.85;;;2.85;;
67544;SDS011;54380;47.770;11.150;2022-08-20T01:05:25;10.98;;;3.15;;
67544;SDS011;54380;47.770;11.150;2022-08-20T01:07:56;10.05;;;2.60;;
67544;SDS011;54380;47.770;11.150;2022-08-20T01:10:25;11.23;;;3.22;;
67544;SDS011;54380;47.770;11.150;2022-08-20T01:12:55;11.70;;;3.50;;
67544;SDS011;54380;47.770;11.150;2022-08-20T01:15:25;9.30;;;2.42;;
67544;SDS011;54380;47.770;11.150;2022-08-20T01:17:57;10.32;;;2.83;;
67544;SDS011;54380;47.770;11.150;2022-08-20T01:20:27;13.55;;;4.72;;
67544;SDS011;54380;47.770;11.150;2022-08-20T01:23:00;14.18;;;4.55;;
67544;SDS011;54380;47.770;11.150;2022-08-20T01:25:53;12.77;;;4.30;;
67544;SDS011;54380;47.770;11.150;2022-08-20T01:28:24;13.35;;;4.15;;
67544;SDS011;54380;47.770;11.150;2022-08-20T01:30:55;12.55;;;4.50;;
67544;SDS011;54380;47.770;11.150;2022-08-20T01:33:22;12.23;;;3.85;;
67544;SDS011;54380;47.770;11.150;2022-08-20T01:35:50;11.80;;;3.47;;
67544;SDS011;54380;47.770;11.150;2022-08-20T01:38:18;11.52;;;3.17;;
67544;SDS011;54380;47.770;11.150;2022-08-20T01:40:56;14.20;;;4.95;;
67544;SDS011;54380;47.770;11.150;2022-08-20T01:43:32;12.20;;;4.10;;
67544;SDS011;54380;47.770;11.150;2022-08-20T01:46:03;15.07;;;4.72;;
67544;SDS011;54380;47.770;11.150;2022-08-20T01:48:30;11.18;;;3.22;;
67544;SDS011;54380;47.770;11.150;2022-08-20T01:50:57;17.95;;;5.05;;
67544;SDS011;54380;47.770;11.150;2022-08-20T01:53:31;14.25;;;5.18;;
67544;SDS011;54380;47.770;11.150;2022-08-20T01:56:00;14.57;;;4.90;;
67544;SDS011;54380;47.770;11.150;2022-08-20T01:58:29;13.25;;;4.53;;
67544;SDS011;54380;47.770;11.150;2022-08-20T02:00:57;13.32;;;4.88;;
67544;SDS011;54380;47.770;11.150;2022-08-20T02:03:24;11.40;;;3.05;;
67544;SDS011;54380;47.770;11.150;2022-08-20T02:05:51;10.90;;;3.08;;
67544;SDS011;54380;47.770;11.150;2022-08-20T02:08:18;12.88;;;4.07;;
67544;SDS011;54380;47.770;11.150;2022-08-20T02:13:53;14.18;;;4.88;;
67544;SDS011;54380;47.770;11.150;2022-08-20T02:16:22;11.82;;;3.80;;
67544;SDS011;54380;47.770;11.150;2022-08-20T02:18:55;13.20;;;4.80;;
67544;SDS011;54380;47.770;11.150;2022-08-20T02:21:24;10.23;;;2.90;;
67544;SDS011;54380;47.770;11.150;2022-08-20T02:23:54;12.38;;;4.00;;
67544;SDS011;54380;47.770;11.150;2022-08-20T02:26:21;9.93;;;2.20;;
67544;SDS011;54380;47.770;11.150;2022-08-20T02:28:48;11.60;;;3.85;;
67544;SDS011;54380;47.770;11.150;2022-08-20T02:31:19;13.93;;;4.78;;
67544;SDS011;54380;47.770;11.150;2022-08-20T02:33:47;12.73;;;4.13;;
67544;SDS011;54380;47.770;11.150;2022-08-20T02:36:35;13.25;;;4.53;;
67544;SDS011;54380;47.770;11.150;2022-08-20T02:39:04;11.98;;;3.55;;
67544;SDS011;54380;47.770;11.150;2022-08-20T02:41:33;11.65;;;3.50;;
67544;SDS011;54380;47.770;11.150;2022-08-20T02:44:00;12.77;;;4.63;;
67544;SDS011;54380;47.770;11.150;2022-08-20T02:46:28;13.35;;;3.80;;
67544;SDS011;54380;47.770;11.150;2022-08-20T02:48:56;11.90;;;3.83;;
67544;SDS011;54380;47.770;11.150;2022-08-20T02:51:23;10.50;;;2.80;;
67544;SDS011;54380;47.770;11.150;2022-08-20T02:53:55;10.35;;;2.58;;
67544;SDS011;54380;47.770;11.150;2022-08-20T02:56:22;12.20;;;4.30;;
67544;SDS011;54380;47.770;11.150;2022-08-20T02:58:49;14.15;;;4.88;;
67544;SDS011;54380;47.770;11.150;2022-08-20T03:01:16;11.18;;;3.35;;
67544;SDS011;54380;47.770;11.150;2022-08-20T03:03:44;12.70;;;4.60;;
67544;SDS011;54380;47.770;11.150;2022-08-20T03:06:14;11.80;;;3.28;;
67544;SDS011;54380;47.770;11.150;2022-08-20T03:08:41;12.68;;;3.90;;
67544;SDS011;54380;47.770;11.150;2022-08-20T03:11:09;10.90;;;3.53;;
67544;SDS011;54380;47.770;11.150;2022-08-20T03:13:36;12.60;;;3.92;;
67544;SDS011;54380;47.770;11.150;2022-08-20T03:16:03;10.43;;;2.90;;
67544;SDS011;54380;47.770;11.150;2022-08-20T03:18:32;12.30;;;4.30;;
67544;SDS011;54380;47.770;11.150;2022-08-20T03:21:03;12.07;;;4.32;;
67544;SDS011;54380;47.770;11.150;2022-08-20T03:23:31;8.73;;;2.33;;
67544;SDS011;54380;47.770;11.150;2022-08-20T03:26:01;12.95;;;3.90;;
67544;SDS011;54380;47.770;11.150;2022-08-20T03:28:30;12.93;;;4.68;;
67544;SDS011;54380;47.770;11.150;2022-08-20T03:30:57;13.75;;;4.43;;
67544;SDS011;54380;47.770;11.150;2022-08-20T03:33:25;12.18;;;3.70;;
67544;SDS011;54380;47.770;11.150;2022-08-20T03:35:52;10.60;;;3.08;;
67544;SDS011;54380;47.770;11.150;2022-08-20T03:38:21;13.25;;;4.05;;
67544;SDS011;54380;47.770;11.150;2022-08-20T03:40:58;13.10;;;4.00;;
67544;SDS011;54380;47.770;11.150;2022-08-20T03:43:26;12.27;;;3.85;;
67544;SDS011;54380;47.770;11.150;2022-08-20T03:45:53;12.52;;;3.50;;
67544;SDS011;54380;47.770;11.150;2022-08-20T03:48:20;11.43;;;3.15;;
67544;SDS011;54380;47.770;11.150;2022-08-20T03:50:48;11.77;;;3.83;;
67544;SDS011;54380;47.770;11.150;2022-08-20T03:53:16;11.82;;;3.63;;
67544;SDS011;54380;47.770;11.150;2022-08-20T03:55:46;12.68;;;3.83;;
67544;SDS011;54380;47.770;11.150;2022-08-20T03:58:20;11.80;;;3.85;;
67544;SDS011;54380;47.770;11.150;2022-08-20T04:00:59;12.75;;;3.90;;
67544;SDS011;54380;47.770;11.150;2022-08-20T04:03:26;12.77;;;4.43;;
67544;SDS011;54380;47.770;11.150;2022-08-20T04:05:53;14.40;;;4.28;;
67544;SDS011;54380;47.770;11.150;2022-08-20T04:08:21;11.98;;;2.83;;
67544;SDS011;54380;47.770;11.150;2022-08-20T04:10:52;12.20;;;3.83;;
67544;SDS011;54380;47.770;11.150;2022-08-20T04:13:20;13.88;;;4.55;;
67544;SDS011;54380;47.770;11.150;2022-08-20T04:15:49;10.73;;;3.10;;
67544;SDS011;54380;47.770;11.150;2022-08-20T04:18:18;12.13;;;3.70;;
67544;SDS011;54380;47.770;11.150;2022-08-20T04:20:49;10.77;;;3.53;;
67544;SDS011;54380;47.770;11.150;2022-08-20T04:23:18;11.57;;;3.20;;
67544;SDS011;54380;47.770;11.150;2022-08-20T04:25:47;12.23;;;3.97;;
67544;SDS011;54380;47.770;11.150;2022-08-20T04:28:17;13.27;;;4.03;;
67544;SDS011;54380;47.770;11.150;2022-08-20T04:30:57;10.50;;;2.78;;
67544;SDS011;54380;47.770;11.150;2022-08-20T04:33:26;13.38;;;4.43;;
67544;SDS011;54380;47.770;11.150;2022-08-20T04:36:00;11.52;;;2.90;;
67544;SDS011;54380;47.770;11.150;2022-08-20T04:38:28;13.32;;;3.03;;
67544;SDS011;54380;47.770;11.150;2022-08-20T04:41:15;9.65;;;2.20;;
67544;SDS011;54380;47.770;11.150;2022-08-20T04:43:51;11.85;;;3.80;;
67544;SDS011;54380;47.770;11.150;2022-08-20T04:46:20;13.18;;;4.60;;
67544;SDS011;54380;47.770;11.150;2022-08-20T04:48:48;14.20;;;5.13;;
67544;SDS011;54380;47.770;11.150;2022-08-20T04:51:15;14.00;;;4.25;;
67544;SDS011;54380;47.770;11.150;2022-08-20T04:53:44;15.77;;;5.40;;
67544;SDS011;54380;47.770;11.150;2022-08-20T04:56:17;17.02;;;5.32;;
67544;SDS011;54380;47.770;11.150;2022-08-20T04:58:45;14.13;;;5.28;;
67544;SDS011;54380;47.770;11.150;2022-08-20T05:01:15;13.85;;;4.88;;
67544;SDS011;54380;47.770;11.150;2022-08-20T05:03:42;11.60;;;3.75;;
67544;SDS011;54380;47.770;11.150;2022-08-20T05:06:10;12.20;;;3.60;;
67544;SDS011;54380;47.770;11.150;2022-08-20T05:08:37;12.10;;;3.65;;
67544;SDS011;54380;47.770;11.150;2022-08-20T05:11:05;9.75;;;2.45;;
67544;SDS011;54380;47.770;11.150;2022-08-20T05:13:54;10.27;;;2.47;;
67544;SDS011;54380;47.770;11.150;2022-08-20T05:16:22;13.77;;;4.38;;
67544;SDS011;54380;47.770;11.150;2022-08-20T05:18:49;14.88;;;5.30;;
67544;SDS011;54380;47.770;11.150;2022-08-20T05:21:18;13.13;;;4.20;;
67544;SDS011;54380;47.770;11.150;2022-08-20T05:23:45;10.40;;;2.67;;
67544;SDS011;54380;47.770;11.150;2022-08-20T05:26:12;10.32;;;2.65;;
67544;SDS011;54380;47.770;11.150;2022-08-20T05:28:41;11.55;;;3.50;;
67544;SDS011;54380;47.770;11.150;2022-08-20T05:31:25;13.93;;;4.50;;
67544;SDS011;54380;47.770;11.150;2022-08-20T05:33:59;10.15;;;2.83;;
67544;SDS011;54380;47.770;11.150;2022-08-20T05:36:26;13.10;;;4.47;;
67544;SDS011;54380;47.770;11.150;2022-08-20T05:38:53;11.55;;;3.78;;
67544;SDS011;54380;47.770;11.150;2022-08-20T05:41:20;10.10;;;2.97;;
67544;SDS011;54380;47.770;11.150;2022-08-20T05:43:55;11.85;;;3.13;;
67544;SDS011;54380;47.770;11.150;2022-08-20T05:46:22;11.90;;;3.75;;
67544;SDS011;54380;47.770;11.150;2022-08-20T05:48:50;13.18;;;4.40;;
67544;SDS011;54380;47.770;11.150;2022-08-20T05:51:17;11.48;;;3.53;;
67544;SDS011;54380;47.770;11.150;2022-08-20T05:53:43;12.07;;;3.80;;
67544;SDS011;54380;47.770;11.150;2022-08-20T05:56:10;14.77;;;4.93;;
67544;SDS011;54380;47.770;11.150;2022-08-20T05:58:37;11.50;;;3.22;;
67544;SDS011;54380;47.770;11.150;2022-08-20T06:01:04;9.55;;;2.47;;
67544;SDS011;54380;47.770;11.150;2022-08-20T06:03:31;12.00;;;3.53;;
67544;SDS011;54380;47.770;11.150;2022-08-20T06:06:17;13.10;;;4.18;;
67544;SDS011;54380;47.770;11.150;2022-08-20T06:09:05;12.25;;;3.08;;
67544;SDS011;54380;47.770;11.150;2022-08-20T06:11:32;12.95;;;3.70;;
67544;SDS011;54380;47.770;11.150;2022-08-20T06:14:02;9.48;;;2.47;;
67544;SDS011;54380;47.770;11.150;2022-08-20T06:16:29;11.70;;;3.80;;
67544;SDS011;54380;47.770;11.150;2022-08-20T06:18:57;12.05;;;3.35;;
67544;SDS011;54380;47.770;11.150;2022-08-20T06:21:25;10.38;;;3.25;;
67544;SDS011;54380;47.770;11.150;2022-08-20T06:23:52;11.45;;;3.45;;
67544;SDS011;54380;47.770;11.150;2022-08-20T06:26:27;10.88;;;3.20;;
67544;SDS011;54380;47.770;11.150;2022-08-20T06:28:56;11.38;;;3.45;;
67544;SDS011;54380;47.770;11.150;2022-08-20T06:31:22;13.30;;;3.35;;
67544;SDS011;54380;47.770;11.150;2022-08-20T06:33:50;12.93;;;4.35;;
67544;SDS011;54380;47.770;11.150;2022-08-20T06:36:17;12.77;;;3.97;;
67544;SDS011;54380;47.770;11.150;2022-08-20T06:38:45;11.23;;;3.20;;
67544;SDS011;54380;47.770;11.150;2022-08-20T06:41:12;9.82;;;2.35;;
67544;SDS011;54380;47.770;11.150;2022-08-20T06:43:39;12.93;;;4.22;;
67544;SDS011;54380;47.770;11.150;2022-08-20T06:46:06;12.98;;;3.97;;
67544;SDS011;54380;47.770;11.150;2022-08-20T06:48:33;11.00;;;3.10;;
67544;SDS011;54380;47.770;11.150;2022-08-20T06:51:00;12.90;;;5.20;;
67544;SDS011;54380;47.770;11.150;2022-08-20T06:53:27;12.20;;;3.63;;
67544;SDS011;54380;47.770;11.150;2022-08-20T06:55:56;12.10;;;3.78;;
67544;SDS011;54380;47.770;11.150;2022-08-20T06:58:24;12.40;;;4.30;;
67544;SDS011;54380;47.770;11.150;2022-08-20T07:01:04;13.38;;;4.57;;
67544;SDS011;54380;47.770;11.150;2022-08-20T07:03:35;10.95;;;3.08;;
67544;SDS011;54380;47.770;11.150;2022-08-20T07:06:21;11.57;;;3.70;;
67544;SDS011;54380;47.770;11.150;2022-08-20T07:08:51;12.80;;;3.72;;
67544;SDS011;54380;47.770;11.150;2022-08-20T07:14:18;11.95;;;3.47;;
67544;SDS011;54380;47.770;11.150;2022-08-20T07:16:45;12.98;;;4.35;;
67544;SDS011;54380;47.770;11.150;2022-08-20T07:19:13;14.27;;;4.82;;
67544;SDS011;54380;47.770;11.150;2022-08-20T07:21:40;13.88;;;4.72;;
67544;SDS011;54380;47.770;11.150;2022-08-20T07:24:21;11.90;;;3.58;;
67544;SDS011;54380;47.770;11.150;2022-08-20T07:26:47;11.27;;;3.28;;
67544;SDS011;54380;47.770;11.150;2022-08-20T07:29:27;11.55;;;3.58;;
67544;SDS011;54380;47.770;11.150;2022-08-20T07:32:15;9.15;;;2.35;;
67544;SDS011;54380;47.770;11.150;2022-08-20T07:35:05;9.20;;;2.47;;
67544;SDS011;54380;47.770;11.150;2022-08-20T07:37:36;9.07;;;1.98;;
67544;SDS011;54380;47.770;11.150;2022-08-20T07:40:04;9.05;;;1.80;;
67544;SDS011;54380;47.770;11.150;2022-08-20T07:42:33;13.77;;;4.00;;
67544;SDS011;54380;47.770;11.150;2022-08-20T07:48:09;13.07;;;4.90;;
67544;SDS011;54380;47.770;11.150;2022-08-20T07:50:52;9.10;;;2.60;;
67544;SDS011;54380;47.770;11.150;2022-08-20T07:53:23;12.07;;;4.32;;
67544;SDS011;54380;47.770;11.150;2022-08-20T07:55:50;12.73;;;4.38;;
67544;SDS011;54380;47.770;11.150;2022-08-20T07:58:41;13.50;;;4.63;;
67544;SDS011;54380;47.770;11.150;2022-08-20T08:01:28;12.02;;;4.15;;
67544;SDS011;54380;47.770;11.150;2022-08-20T08:16:17;12.38;;;3.30;;
67544;SDS011;54380;47.770;11.150;2022-08-20T08:18:59;10.05;;;2.20;;
67544;SDS011;54380;47.770;11.150;2022-08-20T08:21:34;12.05;;;3.55;;
67544;SDS011;54380;47.770;11.150;2022-08-20T08:24:01;11.45;;;3.15;;
67544;SDS011;54380;47.770;11.150;2022-08-20T08:26:28;8.35;;;1.83;;
67544;SDS011;54380;47.770;11.150;2022-08-20T08:28:55;11.18;;;2.58;;
67544;SDS011;54380;47.770;11.150;2022-08-20T08:31:25;9.02;;;2.53;;
67544;SDS011;54380;47.770;11.150;2022-08-20T08:33:51;12.63;;;4.05;;
67544;SDS011;54380;47.770;11.150;2022-08-20T08:36:18;10.38;;;2.63;;
67544;SDS011;54380;47.770;11.150;2022-08-20T08:38:45;8.80;;;2.00;;
67544;SDS011;54380;47.770;11.150;2022-08-20T08:41:15;12.50;;;3.40;;
67544;SDS011;54380;47.770;11.150;2022-08-20T08:43:44;8.57;;;2.17;;
67544;SDS011;54380;47.770;11.150;2022-08-20T08:46:14;9.73;;;2.78;;
67544;SDS011;54380;47.770;11.150;2022-08-20T08:48:45;12.30;;;4.13;;
67544;SDS011;54380;47.770;11.150;2022-08-20T08:51:16;8.90;;;1.67;;
67544;SDS011;54380;47.770;11.150;2022-08-20T08:53:52;11.50;;;3.28;;
67544;SDS011;54380;47.770;11.150;2022-08-20T08:56:21;8.73;;;1.88;;
67544;SDS011;54380;47.770;11.150;2022-08-20T08:58:50;8.63;;;1.60;;
67544;SDS011;54380;47.770;11.150;2022-08-20T09:01:17;10.60;;;3.15;;
67544;SDS011;54380;47.770;11.150;2022-08-20T09:04:08;9.55;;;2.58;;
67544;SDS011;54380;47.770;11.150;2022-08-20T09:06:35;9.98;;;1.95;;
67544;SDS011;54380;47.770;11.150;2022-08-20T09:09:03;7.88;;;1.67;;
67544;SDS011;54380;47.770;11.150;2022-08-20T09:11:35;9.38;;;2.55;;
67544;SDS011;54380;47.770;11.150;2022-08-20T09:14:11;9.18;;;1.98;;
67544;SDS011;54380;47.770;11.150;2022-08-20T09:16:38;9.23;;;1.48;;
67544;SDS011;54380;47.770;11.150;2022-08-20T09:19:19;7.88;;;1.60;;
67544;SDS011;54380;47.770;11.150;2022-08-20T09:21:46;8.77;;;1.60;;
67544;SDS011;54380;47.770;11.150;2022-08-20T09:24:13;8.70;;;2.05;;
67544;SDS011;54380;47.770;11.150;2022-08-20T09:26:40;7.00;;;1.70;;
67544;SDS011;54380;47.770;11.150;2022-08-20T09:29:07;7.18;;;1.55;;
67544;SDS011;54380;47.770;11.150;2022-08-20T09:31:33;7.82;;;1.63;;
67544;SDS011;54380;47.770;11.150;2022-08-20T09:34:03;8.00;;;1.55;;
67544;SDS011;54380;47.770;11.150;2022-08-20T09:36:31;8.48;;;1.85;;
67544;SDS011;54380;47.770;11.150;2022-08-20T09:38:58;11.23;;;2.08;;
67544;SDS011;54380;47.770;11.150;2022-08-20T09:41:28;7.68;;;1.42;;
67544;SDS011;54380;47.770;11.150;2022-08-20T09:43:55;11.15;;;2.05;;
67544;SDS011;54380;47.770;11.150;2022-08-20T09:46:21;7.15;;;1.60;;
67544;SDS011;54380;47.770;11.150;2022-08-20T09:48:53;9.45;;;1.95;;
67544;SDS011;54380;47.770;11.150;2022-08-20T09:51:19;9.63;;;1.80;;
67544;SDS011;54380;47.770;11.150;2022-08-20T09:53:48;8.55;;;1.67;;
67544;SDS011;54380;47.770;11.150;2022-08-20T09:56:15;7.90;;;2.28;;
67544;SDS011;54380;47.770;11.150;2022-08-20T09:58:44;8.15;;;1.73;;
67544;SDS011;54380;47.770;11.150;2022-08-20T10:01:15;7.50;;;1.63;;
67544;SDS011;54380;47.770;11.150;2022-08-20T10:03:43;9.65;;;2.88;;
67544;SDS011;54380;47.770;11.150;2022-08-20T10:06:13;8.48;;;1.73;;
67544;SDS011;54380;47.770;11.150;2022-08-20T10:08:41;7.90;;;1.55;;
67544;SDS011;54380;47.770;11.150;2022-08-20T10:11:10;8.20;;;1.85;;
67544;SDS011;54380;47.770;11.150;2022-08-20T10:13:37;7.82;;;1.83;;
67544;SDS011;54380;47.770;11.150;2022-08-20T10:16:03;8.95;;;2.28;;
67544;SDS011;54380;47.770;11.150;2022-08-20T10:18:31;6.63;;;1.30;;
67544;SDS011;54380;47.770;11.150;2022-08-20T10:20:57;8.85;;;2.22;;
67544;SDS011;54380;47.770;11.150;2022-08-20T10:23:24;8.15;;;1.33;;
67544;SDS011;54380;47.770;11.150;2022-08-20T10:25:51;6.28;;;1.13;;
67544;SDS011;54380;47.770;11.150;2022-08-20T10:28:19;6.88;;;1.20;;
67544;SDS011;54380;47.770;11.150;2022-08-20T10:30:45;8.60;;;1.85;;
67544;SDS011;54380;47.770;11.150;2022-08-20T10:33:12;6.75;;;1.10;;
67544;SDS011;54380;47.770;11.150;2022-08-20T10:35:39;9.63;;;2.78;;
67544;SDS011;54380;47.770;11.150;2022-08-20T10:38:05;5.45;;;0.98;;
67544;SDS011;54380;47.770;11.150;2022-08-20T10:40:32;6.05;;;1.33;;
67544;SDS011;54380;47.770;11.150;2022-08-20T10:42:59;7.60;;;1.08;;
67544;SDS011;54380;47.770;11.150;2022-08-20T10:45:26;8.82;;;1.20;;
67544;SDS011;54380;47.770;11.150;2022-08-20T10:47:53;7.03;;;1.00;;
67544;SDS011;54380;47.770;11.150;2022-08-20T10:50:20;5.90;;;1.00;;
67544;SDS011;54380;47.770;11.150;2022-08-20T10:52:46;5.13;;;1.05;;
67544;SDS011;54380;47.770;11.150;2022-08-20T10:55:13;8.30;;;1.20;;
67544;SDS011;54380;47.770;11.150;2022-08-20T10:57:41;6.70;;;1.38;;
67544;SDS011;54380;47.770;11.150;2022-08-20T11:00:09;5.32;;;1.17;;
67544;SDS011;54380;47.770;11.150;2022-08-20T11:02:39;6.50;;;1.45;;
67544;SDS011;54380;47.770;11.150;2022-08-20T11:05:06;6.78;;;1.02;;
67544;SDS011;54380;47.770;11.150;2022-08-20T11:07:34;8.77;;;2.03;;
67544;SDS011;54380;47.770;11.150;2022-08-20T11:10:22;6.47;;;1.00;;
67544;SDS011;54380;47.770;11.150;2022-08-20T11:12:50;5.85;;;1.13;;
67544;SDS011;54380;47.770;11.150;2022-08-20T11:15:16;4.82;;;0.77;;
67544;SDS011;54380;47.770;11.150;2022-08-20T11:17:45;4.72;;;0.85;;
67544;SDS011;54380;47.770;11.150;2022-08-20T11:20:13;6.43;;;0.98;;
67544;SDS011;54380;47.770;11.150;2022-08-20T11:22:40;5.68;;;1.05;;
67544;SDS011;54380;47.770;11.150;2022-08-20T11:25:07;5.20;;;0.82;;
67544;SDS011;54380;47.770;11.150;2022-08-20T11:27:35;5.43;;;0.88;;
67544;SDS011;54380;47.770;11.150;2022-08-20T11:30:04;5.13;;;0.95;;
67544;SDS011;54380;47.770;11.150;2022-08-20T11:32:33;4.78;;;1.10;;
67544;SDS011;54380;47.770;11.150;2022-08-20T11:35:02;5.15;;;0.95;;
67544;SDS011;54380;47.770;11.150;2022-08-20T11:37:49;5.22;;;0.95;;
67544;SDS011;54380;47.770;11.150;2022-08-20T11:40:16;4.72;;;1.08;;
67544;SDS011;54380;47.770;11.150;2022-08-20T11:42:43;5.15;;;0.90;;
67544;SDS011;54380;47.770;11.150;2022-08-20T11:45:30;6.47;;;1.75;;
67544;SDS011;54380;47.770;11.150;2022-08-20T11:48:03;4.60;;;0.70;;
67544;SDS011;54380;47.770;11.150;2022-08-20T11:50:31;6.97;;;1.45;;
67544;SDS011;54380;47.770;11.150;2022-08-20T11:52:57;5.72;;;1.60;;
67544;SDS011;54380;47.770;11.150;2022-08-20T11:55:27;7.68;;;1.45;;
67544;SDS011;54380;47.770;11.150;2022-08-20T11:57:56;8.02;;;1.58;;
67544;SDS011;54380;47.770;11.150;2022-08-20T12:00:26;7.93;;;1.30;;
67544;SDS011;54380;47.770;11.150;2022-08-20T12:02:58;7.63;;;1.52;;
67544;SDS011;54380;47.770;11.150;2022-08-20T12:05:25;5.80;;;1.02;;
67544;SDS011;54380;47.770;11.150;2022-08-20T12:07:54;8.60;;;1.10;;
67544;SDS011;54380;47.770;11.150;2022-08-20T12:10:20;7.60;;;1.75;;
67544;SDS011;54380;47.770;11.150;2022-08-20T12:12:49;7.82;;;1.50;;
67544;SDS011;54380;47.770;11.150;2022-08-20T12:15:16;8.25;;;1.98;;
67544;SDS011;54380;47.770;11.150;2022-08-20T12:17:43;7.15;;;1.58;;
67544;SDS011;54380;47.770;11.150;2022-08-20T12:20:11;8.18;;;1.92;;
67544;SDS011;54380;47.770;11.150;2022-08-20T12:22:39;9.02;;;2.75;;
67544;SDS011;54380;47.770;11.150;2022-08-20T12:25:07;7.78;;;1.75;;
67544;SDS011;54380;47.770;11.150;2022-08-20T12:30:05;7.57;;;1.40;;
67544;SDS011;54380;47.770;11.150;2022-08-20T12:32:34;8.65;;;1.70;;
67544;SDS011;54380;47.770;11.150;2022-08-20T12:35:00;8.93;;;2.08;;
67544;SDS011;54380;47.770;11.150;2022-08-20T12:37:28;7.82;;;1.85;;
67544;SDS011;54380;47.770;11.150;2022-08-20T12:39:57;7.82;;;1.83;;
67544;SDS011;54380;47.770;11.150;2022-08-20T12:42:26;16.40;;;2.10;;
67544;SDS011;54380;47.770;11.150;2022-08-20T12:44:55;8.02;;;1.60;;
67544;SDS011;54380;47.770;11.150;2022-08-20T12:47:22;8.43;;;1.33;;
67544;SDS011;54380;47.770;11.150;2022-08-20T12:49:52;7.18;;;1.88;;
67544;SDS011;54380;47.770;11.150;2022-08-20T12:52:21;6.57;;;1.30;;
67544;SDS011;54380;47.770;11.150;2022-08-20T12:54:49;7.53;;;1.60;;
67544;SDS011;54380;47.770;11.150;2022-08-20T12:57:21;5.72;;;1.02;;
67544;SDS011;54380;47.770;11.150;2022-08-20T12:59:50;7.60;;;1.23;;
67544;SDS011;54380;47.770;11.150;2022-08-20T13:02:17;9.68;;;2.28;;
67544;SDS011;54380;47.770;11.150;2022-08-20T13:04:44;6.22;;;1.80;;
67544;SDS011;54380;47.770;11.150;2022-08-20T13:07:11;7.88;;;1.05;;
67544;SDS011;54380;47.770;11.150;2022-08-20T13:09:39;6.50;;;0.93;;
67544;SDS011;54380;47.770;11.150;2022-08-20T13:12:06;7.15;;;1.02;;
67544;SDS011;54380;47.770;11.150;2022-08-20T13:14:33;3.30;;;0.57;;
67544;SDS011;54380;47.770;11.150;2022-08-20T13:17:01;4.13;;;0.70;;
67544;SDS011;54380;47.770;11.150;2022-08-20T13:19:33;5.35;;;0.70;;
67544;SDS011;54380;47.770;11.150;2022-08-20T13:22:01;4.88;;;1.02;;
67544;SDS011;54380;47.770;11.150;2022-08-20T13:24:28;4.03;;;0.60;;
67544;SDS011;54380;47.770;11.150;2022-08-20T13:27:02;3.55;;;0.63;;
67544;SDS011;54380;47.770;11.150;2022-08-20T13:29:29;4.40;;;0.65;;
67544;SDS011;54380;47.770;11.150;2022-08-20T13:31:56;3.88;;;0.68;;
67544;SDS011;54380;47.770;11.150;2022-08-20T13:34:24;4.65;;;0.65;;
67544;SDS011;54380;47.770;11.150;2022-08-20T13:36:51;3.95;;;0.70;;
67544;SDS011;54380;47.770;11.150;2022-08-20T13:39:17;5.10;;;0.80;;
67544;SDS011;54380;47.770;11.150;2022-08-20T13:41:44;4.95;;;0.95;;
67544;SDS011;54380;47.770;11.150;2022-08-20T13:44:11;5.22;;;0.82;;
67544;SDS011;54380;47.770;11.150;2022-08-20T13:46:37;5.15;;;0.95;;
67544;SDS011;54380;47.770;11.150;2022-08-20T13:49:04;4.72;;;0.70;;
67544;SDS011;54380;47.770;11.150;2022-08-20T13:51:32;5.90;;;0.73;;
67544;SDS011;54380;47.770;11.150;2022-08-20T13:53:58;23.35;;;9.05;;
67544;SDS011;54380;47.770;11.150;2022-08-20T13:56:26;10.70;;;2.63;;
67544;SDS011;54380;47.770;11.150;2022-08-20T13:58:52;4.63;;;0.80;;
67544;SDS011;54380;47.770;11.150;2022-08-20T14:01:19;4.85;;;0.95;;
67544;SDS011;54380;47.770;11.150;2022-08-20T14:03:46;3.88;;;0.68;;
67544;SDS011;54380;47.770;11.150;2022-08-20T14:06:13;4.57;;;0.93;;
67544;SDS011;54380;47.770;11.150;2022-08-20T14:08:41;6.57;;;1.10;;
67544;SDS011;54380;47.770;11.150;2022-08-20T14:11:08;5.13;;;0.85;;
67544;SDS011;54380;47.770;11.150;2022-08-20T14:13:43;5.82;;;1.00;;
67544;SDS011;54380;47.770;11.150;2022-08-20T14:16:09;6.63;;;1.15;;
67544;SDS011;54380;47.770;11.150;2022-08-20T14:18:52;7.32;;;1.55;;
67544;SDS011;54380;47.770;11.150;2022-08-20T14:21:20;5.25;;;1.00;;
67544;SDS011;54380;47.770;11.150;2022-08-20T14:23:48;5.35;;;1.05;;
67544;SDS011;54380;47.770;11.150;2022-08-20T14:26:15;5.70;;;0.93;;
67544;SDS011;54380;47.770;11.150;2022-08-20T14:28:42;7.18;;;1.77;;
67544;SDS011;54380;47.770;11.150;2022-08-20T14:31:08;6.80;;;1.10;;
67544;SDS011;54380;47.770;11.150;2022-08-20T14:33:35;5.25;;;0.93;;
67544;SDS011;54380;47.770;11.150;2022-08-20T14:36:05;5.63;;;1.08;;
67544;SDS011;54380;47.770;11.150;2022-08-20T14:38:32;7.00;;;1.30;;
67544;SDS011;54380;47.770;11.150;2022-08-20T14:41:00;6.15;;;0.85;;
67544;SDS011;54380;47.770;11.150;2022-08-20T14:43:26;6.25;;;1.30;;
67544;SDS011;54380;47.770;11.150;2022-08-20T14:45:53;7.93;;;1.58;;
67544;SDS011;54380;47.770;11.150;2022-08-20T14:48:20;4.47;;;0.95;;
67544;SDS011;54380;47.770;11.150;2022-08-20T14:50:47;5.13;;;1.00;;
67544;SDS011;54380;47.770;11.150;2022-08-20T14:53:14;4.63;;;0.90;;
67544;SDS011;54380;47.770;11.150;2022-08-20T14:55:41;6.65;;;2.00;;
67544;SDS011;54380;47.770;11.150;2022-08-20T14:58:10;4.05;;;0.95;;
67544;SDS011;54380;47.770;11.150;2022-08-20T15:00:37;6.25;;;0.93;;
67544;SDS011;54380;47.770;11.150;2022-08-20T15:03:04;5.20;;;0.80;;
67544;SDS011;54380;47.770;11.150;2022-08-20T15:05:32;4.65;;;0.80;;
67544;SDS011;54380;47.770;11.150;2022-08-20T15:08:05;4.53;;;1.40;;
67544;SDS011;54380;47.770;11.150;2022-08-20T15:10:32;3.33;;;0.93;;